createdAt,value
2023-01-17T00:00:35.438Z,178.22053
2023-01-17T00:05:36.401Z,179.1145
2023-01-17T00:10:37.328Z,178.22053
2023-01-17T00:15:38.218Z,178.22053
2023-01-17T00:20:39.151Z,182.75969
2023-01-17T00:25:40.044Z,180.92308
2023-01-17T00:30:40.965Z,184.625
2023-01-17T00:35:41.877Z,180.92308
2023-01-17T00:40:42.815Z,179.1145
2023-01-17T00:45:43.752Z,178.22053
2023-01-17T00:50:44.949Z,178.22053
2023-01-17T00:55:46.118Z,176.45283
2023-01-17T01:00:47.253Z,175.57895
2023-01-17T01:05:48.199Z,176.45283
2023-01-17T01:10:49.130Z,175.57895
2023-01-17T01:15:50.265Z,173.85075
2023-01-17T01:20:56.282Z,172.99628
2023-01-17T01:25:57.237Z,172.14815
2023-01-17T01:30:58.376Z,172.14815
2023-01-17T01:35:59.269Z,171.30627
2023-01-17T01:41:00.197Z,170.47059
2023-01-17T01:46:01.181Z,174.71161
2023-01-17T01:51:02.211Z,178.22053
2023-01-17T01:56:03.120Z,175.57895
2023-01-17T02:01:04.152Z,174.71161
2023-01-17T02:06:05.109Z,173.85075
2023-01-17T02:11:06.072Z,171.30627
2023-01-17T02:16:07.024Z,173.85075
2023-01-17T02:21:08.017Z,172.14815
2023-01-17T02:26:08.934Z,168.81752
2023-01-17T02:31:09.964Z,168.81752
2023-01-17T02:36:10.857Z,166.38267
2023-01-17T02:41:11.764Z,166.38267
2023-01-17T02:46:12.862Z,164.0
2023-01-17T02:51:13.819Z,161.66784
2023-01-17T02:56:14.716Z,160.90141
2023-01-17T03:01:15.788Z,160.14035
2023-01-17T03:06:16.844Z,161.66784
2023-01-17T03:11:17.773Z,163.21708
2023-01-17T03:16:18.780Z,162.43972
2023-01-17T03:21:19.737Z,161.66784
2023-01-17T03:26:20.659Z,159.38462
2023-01-17T03:31:21.564Z,156.41379
2023-01-17T03:36:22.489Z,154.9589
2023-01-17T03:41:23.497Z,154.9589
2023-01-17T03:46:24.436Z,154.23891
2023-01-17T03:51:25.378Z,152.10811
2023-01-17T03:56:26.478Z,152.10811
2023-01-17T04:01:27.512Z,151.40741
2023-01-17T04:06:28.541Z,150.02007
2023-01-17T04:11:29.554Z,149.33333
2023-01-17T04:16:30.504Z,152.10811
2023-01-17T04:21:31.607Z,154.9589
2023-01-17T04:26:32.539Z,154.9589
2023-01-17T04:31:33.742Z,160.14035
2023-01-17T04:36:34.814Z,162.43972
2023-01-17T04:41:35.818Z,164.78853
2023-01-17T04:46:36.728Z,163.21708
2023-01-17T04:51:37.655Z,162.43972
2023-01-17T04:56:38.673Z,160.90141
2023-01-17T05:01:39.973Z,159.38462
2023-01-17T05:06:40.979Z,160.90141
2023-01-17T05:11:41.931Z,157.14879
2023-01-17T05:16:42.858Z,154.9589
2023-01-17T05:21:43.797Z,156.41379
2023-01-17T05:26:45.068Z,153.52381
2023-01-17T05:31:46.415Z,154.9589
2023-01-17T05:36:47.500Z,157.14879
2023-01-17T05:41:48.551Z,158.63415
2023-01-17T05:46:49.829Z,161.66784
2023-01-17T05:51:51.193Z,159.38462
2023-01-17T05:56:53.678Z,158.63415
2023-01-17T06:01:54.672Z,157.88889
2023-01-17T06:06:55.737Z,157.14879
2023-01-17T06:11:56.704Z,160.14035
2023-01-17T06:16:57.637Z,157.14879
2023-01-17T06:21:58.644Z,156.41379
2023-01-17T06:26:59.844Z,156.41379
2023-01-17T06:32:01.754Z,156.41379
2023-01-17T06:37:02.904Z,160.14035
2023-01-17T06:42:03.827Z,159.38462
2023-01-17T06:47:04.838Z,161.66784
2023-01-17T06:52:05.753Z,164.0
2023-01-17T06:57:06.709Z,167.18841
2023-01-17T07:02:07.630Z,168.81752
2023-01-17T07:07:08.592Z,164.78853
2023-01-17T07:12:09.578Z,165.58273
2023-01-17T07:17:10.523Z,174.71161
2023-01-17T07:22:11.540Z,172.99628
2023-01-17T07:27:12.473Z,166.38267
2023-01-17T07:32:13.379Z,169.64103
2023-01-17T07:37:15.286Z,168.81752
2023-01-17T07:42:16.484Z,172.99628
2023-01-17T07:47:17.458Z,178.22053
2023-01-17T07:52:18.474Z,173.85075
2023-01-17T07:57:19.383Z,172.14815
2023-01-17T08:02:20.301Z,175.57895
2023-01-17T08:07:21.279Z,174.71161
2023-01-17T08:12:22.216Z,172.14815
2023-01-17T08:17:23.110Z,175.57895
2023-01-17T08:22:24.068Z,178.22053
2023-01-17T08:27:25.030Z,177.33333
2023-01-17T08:32:25.983Z,171.30627
2023-01-17T08:37:26.922Z,176.45283
2023-01-17T08:42:28.074Z,178.22053
2023-01-17T08:47:29.027Z,180.92308
2023-01-17T08:52:29.973Z,182.75969
2023-01-17T08:57:30.893Z,180.92308
2023-01-17T09:02:31.811Z,181.83784
2023-01-17T09:07:32.784Z,179.1145
2023-01-17T09:12:33.741Z,181.83784
2023-01-17T09:17:34.719Z,180.92308
2023-01-17T09:22:35.741Z,179.1145
2023-01-17T09:27:36.777Z,189.41833
2023-01-17T09:32:37.809Z,189.41833
2023-01-17T09:37:38.743Z,193.39271
2023-01-17T09:42:39.692Z,190.4
2023-01-17T09:47:40.591Z,188.44444
2023-01-17T09:52:41.591Z,183.68872
2023-01-17T09:57:42.499Z,180.01533
2023-01-17T10:02:43.628Z,179.1145
2023-01-17T10:07:44.915Z,174.71161
2023-01-17T10:12:46.222Z,180.01533
2023-01-17T10:17:47.389Z,175.57895
2023-01-17T10:22:48.309Z,175.57895
2023-01-17T10:27:49.226Z,174.71161
2023-01-17T10:32:50.228Z,180.92308
2023-01-17T10:37:51.140Z,182.75969
2023-01-17T10:42:52.061Z,186.51969
2023-01-17T10:47:53.001Z,181.83784
2023-01-17T10:52:53.924Z,180.92308
2023-01-17T10:57:54.833Z,180.92308
2023-01-17T11:02:55.866Z,183.68872
2023-01-17T11:07:56.854Z,183.68872
2023-01-17T11:12:57.744Z,183.68872
2023-01-17T11:17:58.660Z,181.83784
2023-01-17T11:22:59.557Z,175.57895
2023-01-17T11:28:00.484Z,174.71161
2023-01-17T11:33:01.649Z,175.57895
2023-01-17T11:38:02.589Z,192.3871
2023-01-17T11:43:03.621Z,188.44444
2023-01-17T11:48:04.601Z,187.47826
2023-01-17T11:53:05.514Z,194.4065
2023-01-17T11:58:06.420Z,184.625
2023-01-17T12:03:07.349Z,180.92308
2023-01-17T12:08:08.319Z,177.33333
2023-01-17T12:13:09.232Z,172.14815
2023-01-17T12:18:10.152Z,160.90141
2023-01-17T12:23:11.149Z,162.43972
2023-01-17T12:28:12.081Z,163.21708
2023-01-17T12:33:13.121Z,153.52381
2023-01-17T12:38:23.689Z,153.52381
2023-01-17T12:43:32.491Z,149.33333
2023-01-17T12:48:33.399Z,124.64516
2023-01-17T12:53:34.447Z,116.06704
2023-01-17T12:58:35.370Z,128.43114
2023-01-17T13:03:36.310Z,138.32177
2023-01-17T13:08:37.275Z,157.14879
2023-01-17T13:13:38.192Z,172.99628
2023-01-17T13:18:39.089Z,180.92308
2023-01-17T13:23:40.000Z,180.01533
2023-01-17T13:28:40.935Z,179.1145
2023-01-17T13:33:41.864Z,187.47826
2023-01-17T13:38:42.765Z,181.83784
2023-01-17T13:43:43.731Z,181.83784
2023-01-17T13:48:44.702Z,186.51969
2023-01-17T13:53:46.021Z,189.41833
2023-01-17T13:58:47.113Z,180.92308
2023-01-17T14:03:48.048Z,178.22053
2023-01-17T14:08:49.035Z,172.14815
2023-01-17T14:13:49.965Z,177.33333
2023-01-17T14:18:50.909Z,171.30627
2023-01-17T14:23:51.860Z,172.14815
2023-01-17T14:28:52.785Z,166.38267
2023-01-17T14:33:53.760Z,168.81752
2023-01-17T14:38:54.677Z,169.64103
2023-01-17T14:43:55.641Z,170.47059
2023-01-17T14:48:56.594Z,168.81752
2023-01-17T14:53:57.529Z,165.58273
2023-01-17T14:58:58.509Z,165.58273
2023-01-17T15:03:59.546Z,172.99628
2023-01-17T15:09:00.501Z,173.85075
2023-01-17T15:14:01.454Z,171.30627
2023-01-17T15:19:02.449Z,172.14815
2023-01-17T15:24:03.411Z,171.30627
2023-01-17T15:29:04.355Z,174.71161
2023-01-17T15:34:05.259Z,174.71161
2023-01-17T15:39:06.184Z,175.57895
2023-01-17T15:44:07.159Z,172.99628
2023-01-17T15:49:08.180Z,171.30627
2023-01-17T15:54:09.160Z,172.14815
2023-01-17T15:59:10.097Z,172.14815
2023-01-17T16:04:11.016Z,169.64103
2023-01-17T16:09:11.998Z,167.18841
2023-01-17T16:14:12.927Z,164.0
2023-01-17T16:19:13.829Z,156.41379
2023-01-17T16:24:14.781Z,152.10811
2023-01-17T16:29:15.745Z,152.10811
2023-01-17T16:34:16.704Z,152.81356
2023-01-17T16:39:17.627Z,153.52381
2023-01-17T16:44:18.592Z,150.71141
2023-01-17T16:49:19.532Z,150.02007
2023-01-17T16:54:20.496Z,151.40741
2023-01-17T16:59:21.392Z,152.81356
2023-01-17T17:04:22.277Z,154.23891
2023-01-17T17:09:23.250Z,155.68385
2023-01-17T17:14:24.155Z,155.68385
2023-01-17T17:19:25.055Z,154.23891
2023-01-17T17:24:25.999Z,152.81356
2023-01-17T17:29:26.974Z,149.33333
2023-01-17T17:34:27.874Z,147.30033
2023-01-17T17:39:28.804Z,144.65147
2023-01-17T17:44:29.747Z,142.70968
2023-01-17T17:49:30.671Z,141.4359
2023-01-17T17:54:31.636Z,142.70968
2023-01-17T17:59:32.552Z,142.07074
2023-01-17T18:04:33.507Z,141.4359
2023-01-17T18:09:34.454Z,142.70968
2023-01-17T18:14:35.355Z,142.70968
2023-01-17T18:19:36.283Z,143.35275
2023-01-17T18:24:37.215Z,143.35275
2023-01-17T18:29:38.541Z,141.4359
2023-01-17T18:34:39.575Z,135.30435
2023-01-17T18:39:40.470Z,134.12346
2023-01-17T18:44:41.455Z,134.12346
2023-01-17T18:49:42.383Z,134.12346
2023-01-17T18:54:43.321Z,134.12346
2023-01-17T18:59:44.257Z,134.71207
2023-01-17T19:04:45.411Z,134.71207
2023-01-17T19:09:46.725Z,135.30435
2023-01-17T19:14:47.655Z,135.30435
2023-01-17T19:19:48.840Z,135.30435
2023-01-17T19:24:50.240Z,135.90031
2023-01-17T19:29:51.208Z,135.30435
2023-01-17T19:34:52.152Z,134.71207
2023-01-17T19:39:53.070Z,134.71207
2023-01-17T19:44:53.997Z,133.53846
2023-01-17T19:49:55.072Z,132.95706
2023-01-17T19:54:56.028Z,132.95706
2023-01-17T19:59:56.978Z,132.95706
2023-01-17T20:04:57.932Z,133.53846
2023-01-17T20:09:58.848Z,134.12346
2023-01-17T20:14:59.781Z,134.71207
2023-01-17T20:20:00.733Z,135.30435
2023-01-17T20:25:01.702Z,135.30435
2023-01-17T20:30:14.827Z,135.90031
2023-01-17T20:35:20.591Z,135.90031
2023-01-17T20:40:21.541Z,135.90031
2023-01-17T20:45:22.488Z,136.5
2023-01-17T20:50:23.418Z,135.90031
2023-01-17T20:55:24.433Z,135.90031
2023-01-17T21:00:25.403Z,135.90031
2023-01-17T21:05:26.737Z,135.30435
2023-01-17T21:10:32.888Z,134.71207
2023-01-17T21:15:33.917Z,134.12346
2023-01-17T21:20:35.300Z,134.12346
2023-01-17T21:25:36.250Z,134.12346
2023-01-17T21:30:37.255Z,133.53846
2023-01-17T21:35:38.233Z,132.95706
2023-01-17T21:40:39.230Z,132.95706
2023-01-17T21:45:40.204Z,132.95706
2023-01-17T21:50:41.159Z,132.95706
2023-01-17T21:55:42.112Z,132.3792
2023-01-17T22:00:43.055Z,132.95706
2023-01-17T22:05:44.023Z,132.95706
2023-01-17T22:10:45.069Z,132.3792
2023-01-17T22:15:46.273Z,132.95706
2023-01-17T22:20:47.318Z,132.95706
2023-01-17T22:25:48.269Z,132.3792
2023-01-17T22:30:49.244Z,131.80488
2023-01-17T22:35:50.211Z,132.95706
2023-01-17T22:40:51.180Z,132.95706
2023-01-17T22:45:52.093Z,132.95706
2023-01-17T22:50:53.003Z,132.95706
2023-01-17T22:55:54.008Z,133.53846
2023-01-17T23:00:54.939Z,134.12346
2023-01-17T23:05:55.878Z,134.12346
2023-01-17T23:10:56.836Z,134.12346
2023-01-17T23:15:58.181Z,133.53846
2023-01-17T23:21:05.298Z,134.71207
2023-01-17T23:26:06.244Z,134.71207
2023-01-17T23:31:07.264Z,134.71207
2023-01-17T23:36:08.205Z,135.90031
2023-01-17T23:41:09.144Z,135.90031
2023-01-17T23:46:10.130Z,135.90031
2023-01-17T23:51:11.039Z,135.90031
2023-01-17T23:56:12.041Z,136.5
